sensor_id;sensor_type;location;lat;lon;timestamp;pressure;altitude;pressure_sealevel;temperature;humidity
6395;BME280;3230;42.588;23.358;2023-03-26T00:00:04;90548.25;;;8.60;91.74
6395;BME280;3230;42.588;23.358;2023-03-26T00:02:33;90544.72;;;8.41;92.34
6395;BME280;3230;42.588;23.358;2023-03-26T00:04:58;90539.78;;;8.34;92.92
6395;BME280;3230;42.588;23.358;2023-03-26T00:07:27;90537.28;;;8.19;94.00
6395;BME280;3230;42.588;23.358;2023-03-26T00:09:52;90533.34;;;8.21;94.73
6395;BME280;3230;42.588;23.358;2023-03-26T00:12:18;90530.50;;;8.18;95.28
6395;BME280;3230;42.588;23.358;2023-03-26T00:14:43;90535.78;;;8.07;96.27
6395;BME280;3230;42.588;23.358;2023-03-26T00:17:09;90534.75;;;8.03;96.70
6395;BME280;3230;42.588;23.358;2023-03-26T00:19:34;90529.81;;;7.96;97.18
6395;BME280;3230;42.588;23.358;2023-03-26T00:22:01;90527.72;;;7.98;97.87
6395;BME280;3230;42.588;23.358;2023-03-26T00:24:27;90525.44;;;7.87;98.32
6395;BME280;3230;42.588;23.358;2023-03-26T00:26:54;90522.03;;;7.91;98.57
6395;BME280;3230;42.588;23.358;2023-03-26T00:29:20;90516.25;;;7.99;97.69
6395;BME280;3230;42.588;23.358;2023-03-26T00:31:47;90517.31;;;7.98;97.74
6395;BME280;3230;42.588;23.358;2023-03-26T00:34:14;90514.66;;;8.04;97.76
6395;BME280;3230;42.588;23.358;2023-03-26T00:36:42;90509.50;;;7.93;98.13
6395;BME280;3230;42.588;23.358;2023-03-26T00:39:08;90498.09;;;7.79;98.11
6395;BME280;3230;42.588;23.358;2023-03-26T00:41:34;90496.75;;;7.87;97.83
6395;BME280;3230;42.588;23.358;2023-03-26T00:44:01;90495.47;;;7.84;97.59
6395;BME280;3230;42.588;23.358;2023-03-26T00:46:28;90490.84;;;7.71;97.89
6395;BME280;3230;42.588;23.358;2023-03-26T00:48:55;90490.53;;;7.82;98.23
6395;BME280;3230;42.588;23.358;2023-03-26T00:51:23;90488.44;;;7.79;94.95
6395;BME280;3230;42.588;23.358;2023-03-26T00:53:49;90488.41;;;7.90;93.24
6395;BME280;3230;42.588;23.358;2023-03-26T00:56:15;90491.69;;;8.06;90.65
6395;BME280;3230;42.588;23.358;2023-03-26T00:58:41;90488.22;;;8.15;87.94
6395;BME280;3230;42.588;23.358;2023-03-26T01:01:12;90496.16;;;8.40;86.79
6395;BME280;3230;42.588;23.358;2023-03-26T01:03:38;90489.84;;;8.46;85.76
6395;BME280;3230;42.588;23.358;2023-03-26T01:06:10;90503.94;;;8.50;85.78
6395;BME280;3230;42.588;23.358;2023-03-26T01:08:44;90497.59;;;8.61;85.43
6395;BME280;3230;42.588;23.358;2023-03-26T01:11:20;90491.34;;;8.57;85.03
6395;BME280;3230;42.588;23.358;2023-03-26T01:16:49;90497.41;;;8.47;88.32
6395;BME280;3230;42.588;23.358;2023-03-26T01:22:07;90496.78;;;8.26;90.55
6395;BME280;3230;42.588;23.358;2023-03-26T01:24:38;90491.31;;;8.23;91.26
6395;BME280;3230;42.588;23.358;2023-03-26T01:32:43;90506.94;;;7.83;94.72
6395;BME280;3230;42.588;23.358;2023-03-26T01:40:53;90515.38;;;7.64;97.68
6395;BME280;3230;42.588;23.358;2023-03-26T01:46:04;90510.69;;;7.66;98.01
6395;BME280;3230;42.588;23.358;2023-03-26T01:48:34;90516.69;;;7.62;97.80
6395;BME280;3230;42.588;23.358;2023-03-26T01:51:01;90520.88;;;7.63;98.02
6395;BME280;3230;42.588;23.358;2023-03-26T01:53:27;90515.75;;;7.37;97.99
6395;BME280;3230;42.588;23.358;2023-03-26T01:56:02;90517.03;;;7.45;98.57
6395;BME280;3230;42.588;23.358;2023-03-26T01:58:45;90526.41;;;7.46;98.05
6395;BME280;3230;42.588;23.358;2023-03-26T02:01:43;90529.28;;;7.44;98.19
6395;BME280;3230;42.588;23.358;2023-03-26T02:04:14;90529.03;;;7.35;99.84
6395;BME280;3230;42.588;23.358;2023-03-26T02:06:51;90527.50;;;7.29;100.00
6395;BME280;3230;42.588;23.358;2023-03-26T02:09:21;90525.97;;;7.28;100.00
6395;BME280;3230;42.588;23.358;2023-03-26T02:11:49;90536.41;;;7.18;100.00
6395;BME280;3230;42.588;23.358;2023-03-26T02:14:15;90536.94;;;7.15;100.00
6395;BME280;3230;42.588;23.358;2023-03-26T02:16:41;90536.41;;;7.18;100.00
6395;BME280;3230;42.588;23.358;2023-03-26T02:19:11;90531.72;;;7.15;100.00
6395;BME280;3230;42.588;23.358;2023-03-26T02:21:40;90537.19;;;7.24;100.00
6395;BME280;3230;42.588;23.358;2023-03-26T02:24:06;90522.78;;;7.36;100.00
6395;BME280;3230;42.588;23.358;2023-03-26T02:26:33;90524.66;;;7.26;100.00
6395;BME280;3230;42.588;23.358;2023-03-26T02:29:00;90511.69;;;7.00;100.00
6395;BME280;3230;42.588;23.358;2023-03-26T02:31:27;90511.69;;;6.95;100.00
6395;BME280;3230;42.588;23.358;2023-03-26T02:33:54;90511.19;;;6.93;100.00
6395;BME280;3230;42.588;23.358;2023-03-26T02:36:21;90525.25;;;6.86;100.00
6395;BME280;3230;42.588;23.358;2023-03-26T02:38:52;90510.16;;;6.73;100.00
6395;BME280;3230;42.588;23.358;2023-03-26T02:41:18;90515.66;;;6.66;100.00
6395;BME280;3230;42.588;23.358;2023-03-26T02:43:44;90520.59;;;6.68;100.00
6395;BME280;3230;42.588;23.358;2023-03-26T02:46:09;90521.91;;;6.70;100.00
6395;BME280;3230;42.588;23.358;2023-03-26T02:48:34;90522.41;;;6.78;100.00
6395;BME280;3230;42.588;23.358;2023-03-26T02:51:00;90517.44;;;6.71;100.00
6395;BME280;3230;42.588;23.358;2023-03-26T02:53:26;90542.44;;;6.87;100.00
6395;BME280;3230;42.588;23.358;2023-03-26T02:55:56;90536.44;;;6.82;100.00
6395;BME280;3230;42.588;23.358;2023-03-26T02:58:21;90552.06;;;6.97;100.00
6395;BME280;3230;42.588;23.358;2023-03-26T03:00:50;90543.75;;;6.75;100.00
6395;BME280;3230;42.588;23.358;2023-03-26T03:03:20;90542.22;;;6.74;100.00
6395;BME280;3230;42.588;23.358;2023-03-26T03:05:52;90534.41;;;6.74;100.00
6395;BME280;3230;42.588;23.358;2023-03-26T03:08:23;90541.41;;;6.73;100.00
6395;BME280;3230;42.588;23.358;2023-03-26T03:13:25;90546.38;;;6.64;100.00
6395;BME280;3230;42.588;23.358;2023-03-26T03:15:50;90543.50;;;6.66;100.00
6395;BME280;3230;42.588;23.358;2023-03-26T03:18:16;90553.66;;;6.57;100.00
6395;BME280;3230;42.588;23.358;2023-03-26T03:20:41;90559.38;;;6.54;100.00
6395;BME280;3230;42.588;23.358;2023-03-26T03:23:07;90554.69;;;6.51;100.00
6395;BME280;3230;42.588;23.358;2023-03-26T03:25:33;90557.53;;;6.44;100.00
6395;BME280;3230;42.588;23.358;2023-03-26T03:27:58;90546.88;;;6.30;100.00
6395;BME280;3230;42.588;23.358;2023-03-26T03:30:24;90557.03;;;6.21;100.00
6395;BME280;3230;42.588;23.358;2023-03-26T03:32:50;90556.50;;;6.14;100.00
6395;BME280;3230;42.588;23.358;2023-03-26T03:35:15;90554.69;;;6.20;100.00
6395;BME280;3230;42.588;23.358;2023-03-26T03:37:41;90554.91;;;6.13;100.00
6395;BME280;3230;42.588;23.358;2023-03-26T03:40:07;90557.00;;;6.11;100.00
6395;BME280;3230;42.588;23.358;2023-03-26T03:42:35;90565.59;;;6.17;100.00
6395;BME280;3230;42.588;23.358;2023-03-26T03:45:01;90556.72;;;6.07;100.00
6395;BME280;3230;42.588;23.358;2023-03-26T03:47:26;90556.19;;;6.00;100.00
6395;BME280;3230;42.588;23.358;2023-03-26T03:49:52;90554.09;;;5.97;100.00
6395;BME280;3230;42.588;23.358;2023-03-26T03:52:17;90569.19;;;6.00;100.00
6395;BME280;3230;42.588;23.358;2023-03-26T03:54:43;90572.78;;;5.94;100.00
6395;BME280;3230;42.588;23.358;2023-03-26T03:57:08;90568.63;;;5.93;100.00
6395;BME280;3230;42.588;23.358;2023-03-26T03:59:34;90579.06;;;5.98;100.00
6395;BME280;3230;42.588;23.358;2023-03-26T04:01:59;90582.16;;;5.90;100.00
6395;BME280;3230;42.588;23.358;2023-03-26T04:04:25;90574.88;;;5.92;100.00
6395;BME280;3230;42.588;23.358;2023-03-26T04:06:50;90577.44;;;5.76;100.00
6395;BME280;3230;42.588;23.358;2023-03-26T04:09:16;90575.38;;;5.84;100.00
6395;BME280;3230;42.588;23.358;2023-03-26T04:11:42;90565.72;;;5.74;100.00
6395;BME280;3230;42.588;23.358;2023-03-26T04:14:07;90565.94;;;5.67;100.00
6395;BME280;3230;42.588;23.358;2023-03-26T04:16:32;90573.25;;;5.70;100.00
6395;BME280;3230;42.588;23.358;2023-03-26T04:18:58;90577.66;;;5.70;100.00
6395;BME280;3230;42.588;23.358;2023-03-26T04:21:26;90581.06;;;5.75;100.00
6395;BME280;3230;42.588;23.358;2023-03-26T04:23:54;90589.88;;;5.74;100.00
6395;BME280;3230;42.588;23.358;2023-03-26T04:26:20;90603.66;;;5.70;100.00
6395;BME280;3230;42.588;23.358;2023-03-26T04:28:51;90611.22;;;5.71;100.00
6395;BME280;3230;42.588;23.358;2023-03-26T04:31:21;90609.13;;;5.73;100.00
6395;BME280;3230;42.588;23.358;2023-03-26T04:33:54;90623.22;;;5.83;100.00
6395;BME280;3230;42.588;23.358;2023-03-26T04:36:30;90622.19;;;5.89;100.00
6395;BME280;3230;42.588;23.358;2023-03-26T04:38:59;90623.75;;;5.90;100.00
6395;BME280;3230;42.588;23.358;2023-03-26T04:41:27;90631.56;;;5.95;100.00
6395;BME280;3230;42.588;23.358;2023-03-26T04:43:54;90628.25;;;6.00;100.00
6395;BME280;3230;42.588;23.358;2023-03-26T04:46:21;90640.75;;;6.03;100.00
6395;BME280;3230;42.588;23.358;2023-03-26T04:48:48;90638.94;;;6.08;100.00
6395;BME280;3230;42.588;23.358;2023-03-26T04:51:14;90637.13;;;6.09;100.00
6395;BME280;3230;42.588;23.358;2023-03-26T04:53:58;90644.13;;;6.08;100.00
6395;BME280;3230;42.588;23.358;2023-03-26T04:56:48;90648.84;;;6.12;100.00
6395;BME280;3230;42.588;23.358;2023-03-26T04:59:22;90646.47;;;6.05;100.00
6395;BME280;3230;42.588;23.358;2023-03-26T05:01:54;90644.66;;;6.05;100.00
6395;BME280;3230;42.588;23.358;2023-03-26T05:04:21;90654.28;;;6.10;100.00
6395;BME280;3230;42.588;23.358;2023-03-26T05:06:46;90663.44;;;6.23;100.00
6395;BME280;3230;42.588;23.358;2023-03-26T05:09:12;90659.25;;;6.12;100.00
6395;BME280;3230;42.588;23.358;2023-03-26T05:11:38;90667.09;;;7.87;100.00
6395;BME280;3230;42.588;23.358;2023-03-26T05:14:04;90670.91;;;10.71;89.17
6395;BME280;3230;42.588;23.358;2023-03-26T05:16:29;90696.56;;;12.68;73.57
6395;BME280;3230;42.588;23.358;2023-03-26T05:18:56;90697.84;;;13.66;64.69
6395;BME280;3230;42.588;23.358;2023-03-26T05:21:21;90696.88;;;14.48;57.32
6395;BME280;3230;42.588;23.358;2023-03-26T05:23:47;90704.06;;;15.49;54.26
6395;BME280;3230;42.588;23.358;2023-03-26T05:26:12;90711.69;;;15.86;57.16
6395;BME280;3230;42.588;23.358;2023-03-26T05:28:38;90713.66;;;16.62;46.15
6395;BME280;3230;42.588;23.358;2023-03-26T05:31:03;90713.50;;;16.98;44.58
6395;BME280;3230;42.588;23.358;2023-03-26T05:33:29;90711.94;;;17.69;43.44
6395;BME280;3230;42.588;23.358;2023-03-26T05:38:28;90700.94;;;18.59;41.58
6395;BME280;3230;42.588;23.358;2023-03-26T05:41:02;90709.78;;;18.88;39.62
6395;BME280;3230;42.588;23.358;2023-03-26T05:43:28;90695.22;;;19.18;39.15
6395;BME280;3230;42.588;23.358;2023-03-26T05:45:54;90698.50;;;19.81;37.77
6395;BME280;3230;42.588;23.358;2023-03-26T05:48:20;90705.72;;;19.80;37.84
6395;BME280;3230;42.588;23.358;2023-03-26T05:50:50;90709.06;;;21.30;34.06
6395;BME280;3230;42.588;23.358;2023-03-26T05:53:16;90707.91;;;22.02;32.96
6395;BME280;3230;42.588;23.358;2023-03-26T05:55:43;90714.63;;;21.25;34.46
6395;BME280;3230;42.588;23.358;2023-03-26T05:58:15;90710.50;;;21.44;34.39
6395;BME280;3230;42.588;23.358;2023-03-26T06:00:41;90709.69;;;21.79;33.28
6395;BME280;3230;42.588;23.358;2023-03-26T06:03:06;90696.06;;;22.43;32.84
6395;BME280;3230;42.588;23.358;2023-03-26T06:05:37;90685.88;;;22.48;32.02
6395;BME280;3230;42.588;23.358;2023-03-26T06:08:04;90695.72;;;22.44;31.73
6395;BME280;3230;42.588;23.358;2023-03-26T06:10:30;90691.41;;;21.06;33.34
6395;BME280;3230;42.588;23.358;2023-03-26T06:12:56;90685.34;;;21.09;33.41
6395;BME280;3230;42.588;23.358;2023-03-26T06:15:21;90689.50;;;20.58;33.69
6395;BME280;3230;42.588;23.358;2023-03-26T06:17:47;90692.91;;;21.23;32.80
6395;BME280;3230;42.588;23.358;2023-03-26T06:20:13;90682.84;;;21.16;33.56
6395;BME280;3230;42.588;23.358;2023-03-26T06:22:38;90677.16;;;21.69;31.06
6395;BME280;3230;42.588;23.358;2023-03-26T06:25:05;90677.50;;;21.68;31.42
6395;BME280;3230;42.588;23.358;2023-03-26T06:27:31;90676.94;;;21.78;32.55
6395;BME280;3230;42.588;23.358;2023-03-26T06:29:56;90678.81;;;22.83;31.30
6395;BME280;3230;42.588;23.358;2023-03-26T06:32:21;90686.00;;;23.02;30.42
6395;BME280;3230;42.588;23.358;2023-03-26T06:34:47;90690.44;;;22.94;31.12
6395;BME280;3230;42.588;23.358;2023-03-26T06:37:14;90690.00;;;22.65;30.47
6395;BME280;3230;42.588;23.358;2023-03-26T06:39:39;90677.09;;;22.28;31.55
6395;BME280;3230;42.588;23.358;2023-03-26T06:42:05;90696.53;;;21.50;32.67
6395;BME280;3230;42.588;23.358;2023-03-26T06:44:30;90688.50;;;21.66;33.32
6395;BME280;3230;42.588;23.358;2023-03-26T06:46:55;90680.75;;;21.06;34.57
6395;BME280;3230;42.588;23.358;2023-03-26T06:49:21;90684.41;;;22.74;32.13
6395;BME280;3230;42.588;23.358;2023-03-26T06:51:46;90681.53;;;22.87;30.92
6395;BME280;3230;42.588;23.358;2023-03-26T06:54:12;90694.25;;;22.93;31.23
6395;BME280;3230;42.588;23.358;2023-03-26T06:56:41;90699.34;;;23.02;30.66
6395;BME280;3230;42.588;23.358;2023-03-26T06:59:07;90697.78;;;23.24;30.64
6395;BME280;3230;42.588;23.358;2023-03-26T07:01:32;90707.75;;;21.95;32.56
6395;BME280;3230;42.588;23.358;2023-03-26T07:03:58;90708.84;;;22.33;32.01
6395;BME280;3230;42.588;23.358;2023-03-26T07:06:23;90706.47;;;22.09;31.58
6395;BME280;3230;42.588;23.358;2023-03-26T07:08:49;90713.28;;;22.26;31.74
6395;BME280;3230;42.588;23.358;2023-03-26T07:11:14;90718.44;;;22.58;31.68
6395;BME280;3230;42.588;23.358;2023-03-26T07:13:41;90717.13;;;23.94;29.85
6395;BME280;3230;42.588;23.358;2023-03-26T07:16:06;90725.88;;;24.25;28.75
6395;BME280;3230;42.588;23.358;2023-03-26T07:18:32;90721.81;;;23.78;29.88
6395;BME280;3230;42.588;23.358;2023-03-26T07:20:58;90720.84;;;24.54;28.67
6395;BME280;3230;42.588;23.358;2023-03-26T07:23:23;90714.91;;;23.20;29.65
6395;BME280;3230;42.588;23.358;2023-03-26T07:25:49;90714.25;;;23.03;30.80
6395;BME280;3230;42.588;23.358;2023-03-26T07:28:36;90714.41;;;23.64;30.35
6395;BME280;3230;42.588;23.358;2023-03-26T07:36:25;90707.88;;;23.61;29.32
6395;BME280;3230;42.588;23.358;2023-03-26T07:39:14;90712.81;;;24.20;29.42
6395;BME280;3230;42.588;23.358;2023-03-26T07:41:57;90710.13;;;23.90;28.49
6395;BME280;3230;42.588;23.358;2023-03-26T07:47:32;90699.19;;;25.15;28.04
6395;BME280;3230;42.588;23.358;2023-03-26T07:49:57;90710.81;;;25.34;26.71
6395;BME280;3230;42.588;23.358;2023-03-26T07:52:24;90718.19;;;25.44;26.65
6395;BME280;3230;42.588;23.358;2023-03-26T07:54:51;90708.47;;;25.29;27.07
6395;BME280;3230;42.588;23.358;2023-03-26T08:00:00;90715.06;;;26.01;25.85
6395;BME280;3230;42.588;23.358;2023-03-26T08:05:52;90709.34;;;24.54;26.70
6395;BME280;3230;42.588;23.358;2023-03-26T08:08:28;90694.63;;;25.19;26.05
6395;BME280;3230;42.588;23.358;2023-03-26T08:18:42;90713.22;;;26.09;24.12
6395;BME280;3230;42.588;23.358;2023-03-26T08:21:14;90708.34;;;25.63;23.95
6395;BME280;3230;42.588;23.358;2023-03-26T08:27:04;90713.31;;;25.61;24.86
6395;BME280;3230;42.588;23.358;2023-03-26T08:29:44;90713.88;;;25.32;24.82
6395;BME280;3230;42.588;23.358;2023-03-26T08:32:16;90724.41;;;26.22;23.93
6395;BME280;3230;42.588;23.358;2023-03-26T08:34:43;90714.47;;;25.63;24.72
6395;BME280;3230;42.588;23.358;2023-03-26T08:37:08;90717.59;;;25.73;23.56
6395;BME280;3230;42.588;23.358;2023-03-26T08:39:35;90716.41;;;25.14;24.24
6395;BME280;3230;42.588;23.358;2023-03-26T08:50:50;90711.84;;;24.70;24.96
6395;BME280;3230;42.588;23.358;2023-03-26T08:55:59;90707.22;;;23.99;25.30
6395;BME280;3230;42.588;23.358;2023-03-26T09:04:37;90705.56;;;22.40;25.75
6395;BME280;3230;42.588;23.358;2023-03-26T09:27:14;90693.09;;;14.71;41.85
6395;BME280;3230;42.588;23.358;2023-03-26T09:41:09;90690.44;;;13.68;44.97
6395;BME280;3230;42.588;23.358;2023-03-26T09:52:14;90692.13;;;13.64;41.50
6395;BME280;3230;42.588;23.358;2023-03-26T10:00:35;90692.56;;;13.21;42.11
6395;BME280;3230;42.588;23.358;2023-03-26T10:09:28;90689.06;;;13.71;40.80
6395;BME280;3230;42.588;23.358;2023-03-26T10:12:17;90680.44;;;13.56;36.41
6395;BME280;3230;42.588;23.358;2023-03-26T10:15:21;90680.03;;;13.63;37.44
6395;BME280;3230;42.588;23.358;2023-03-26T10:20:54;90669.75;;;13.75;35.67
6395;BME280;3230;42.588;23.358;2023-03-26T10:26:01;90654.97;;;13.43;36.15
6395;BME280;3230;42.588;23.358;2023-03-26T10:31:35;90644.69;;;13.55;38.98
6395;BME280;3230;42.588;23.358;2023-03-26T10:37:05;90642.06;;;13.87;35.31
6395;BME280;3230;42.588;23.358;2023-03-26T10:45:12;90626.59;;;14.34;35.65
6395;BME280;3230;42.588;23.358;2023-03-26T10:53:56;90631.88;;;14.34;32.46
6395;BME280;3230;42.588;23.358;2023-03-26T10:56:31;90624.25;;;13.84;33.99
6395;BME280;3230;42.588;23.358;2023-03-26T10:59:03;90624.66;;;14.08;32.25
6395;BME280;3230;42.588;23.358;2023-03-26T11:01:39;90620.06;;;13.83;31.17
6395;BME280;3230;42.588;23.358;2023-03-26T11:15:16;90619.06;;;14.59;31.16
6395;BME280;3230;42.588;23.358;2023-03-26T11:18:14;90617.63;;;14.44;30.17
6395;BME280;3230;42.588;23.358;2023-03-26T11:23:41;90616.63;;;14.80;31.14
6395;BME280;3230;42.588;23.358;2023-03-26T11:26:13;90615.69;;;14.67;29.42
6395;BME280;3230;42.588;23.358;2023-03-26T11:31:39;90604.94;;;14.55;29.65
6395;BME280;3230;42.588;23.358;2023-03-26T11:34:16;90597.41;;;14.22;30.93
6395;BME280;3230;42.588;23.358;2023-03-26T11:36:49;90602.53;;;14.18;31.02
6395;BME280;3230;42.588;23.358;2023-03-26T11:39:49;90600.91;;;14.49;31.77
6395;BME280;3230;42.588;23.358;2023-03-26T11:42:17;90602.00;;;13.99;32.84
6395;BME280;3230;42.588;23.358;2023-03-26T11:44:58;90593.84;;;14.09;33.30
6395;BME280;3230;42.588;23.358;2023-03-26T11:47:46;90578.97;;;14.22;33.14
6395;BME280;3230;42.588;23.358;2023-03-26T11:50:19;90579.19;;;14.43;33.13
6395;BME280;3230;42.588;23.358;2023-03-26T11:52:46;90561.31;;;14.22;33.07
6395;BME280;3230;42.588;23.358;2023-03-26T11:55:12;90565.97;;;14.34;32.63
6395;BME280;3230;42.588;23.358;2023-03-26T11:57:41;90547.03;;;14.15;31.58
6395;BME280;3230;42.588;23.358;2023-03-26T12:00:13;90547.25;;;14.45;32.57
6395;BME280;3230;42.588;23.358;2023-03-26T12:02:42;90532.28;;;14.14;32.40
6395;BME280;3230;42.588;23.358;2023-03-26T12:10:36;90530.94;;;14.43;32.47
6395;BME280;3230;42.588;23.358;2023-03-26T12:15:56;90518.72;;;14.64;34.27
6395;BME280;3230;42.588;23.358;2023-03-26T12:18:24;90531.16;;;14.81;32.55
6395;BME280;3230;42.588;23.358;2023-03-26T12:21:04;90519.16;;;14.58;33.11
6395;BME280;3230;42.588;23.358;2023-03-26T12:23:57;90518.28;;;14.80;34.71
6395;BME280;3230;42.588;23.358;2023-03-26T12:26:37;90516.72;;;14.96;30.87
6395;BME280;3230;42.588;23.358;2023-03-26T12:29:16;90505.69;;;14.94;31.47
6395;BME280;3230;42.588;23.358;2023-03-26T12:34:14;90493.59;;;14.93;31.94
6395;BME280;3230;42.588;23.358;2023-03-26T12:36:47;90502.78;;;14.87;31.56
6395;BME280;3230;42.588;23.358;2023-03-26T12:39:26;90485.84;;;14.88;32.22
6395;BME280;3230;42.588;23.358;2023-03-26T12:41:56;90490.78;;;15.07;32.00
6395;BME280;3230;42.588;23.358;2023-03-26T12:44:50;90489.53;;;15.05;32.13
6395;BME280;3230;42.588;23.358;2023-03-26T12:47:18;90491.84;;;15.15;28.34
6395;BME280;3230;42.588;23.358;2023-03-26T12:49:45;90489.06;;;15.11;27.08
6395;BME280;3230;42.588;23.358;2023-03-26T12:57:31;90476.44;;;15.34;28.13
6395;BME280;3230;42.588;23.358;2023-03-26T13:03:07;90476.59;;;15.29;28.70
6395;BME280;3230;42.588;23.358;2023-03-26T13:08:44;90480.78;;;15.30;29.18
6395;BME280;3230;42.588;23.358;2023-03-26T13:11:42;90469.94;;;15.23;28.43
6395;BME280;3230;42.588;23.358;2023-03-26T13:14:24;90468.56;;;15.17;27.42
6395;BME280;3230;42.588;23.358;2023-03-26T13:20:09;90461.84;;;15.28;29.16
6395;BME280;3230;42.588;23.358;2023-03-26T13:36:11;90455.75;;;15.37;29.69
6395;BME280;3230;42.588;23.358;2023-03-26T13:38:49;90459.75;;;15.51;29.20
6395;BME280;3230;42.588;23.358;2023-03-26T13:44:32;90465.88;;;15.34;27.09
6395;BME280;3230;42.588;23.358;2023-03-26T13:47:12;90467.75;;;15.25;28.32
6395;BME280;3230;42.588;23.358;2023-03-26T13:49:43;90471.31;;;15.29;28.70
6395;BME280;3230;42.588;23.358;2023-03-26T13:52:23;90466.56;;;15.14;27.67
6395;BME280;3230;42.588;23.358;2023-03-26T13:55:20;90466.66;;;15.35;27.78
6395;BME280;3230;42.588;23.358;2023-03-26T13:58:17;90461.56;;;15.12;28.02
6395;BME280;3230;42.588;23.358;2023-03-26T14:00:53;90462.41;;;15.04;27.27
6395;BME280;3230;42.588;23.358;2023-03-26T14:03:40;90456.50;;;14.98;29.24
6395;BME280;3230;42.588;23.358;2023-03-26T14:06:26;90463.94;;;14.96;29.36
6395;BME280;3230;42.588;23.358;2023-03-26T14:08:57;90455.38;;;15.08;31.37
6395;BME280;3230;42.588;23.358;2023-03-26T14:14:14;90445.97;;;14.90;29.58
6395;BME280;3230;42.588;23.358;2023-03-26T14:16:53;90448.41;;;15.03;28.72
6395;BME280;3230;42.588;23.358;2023-03-26T14:27:30;90444.75;;;14.87;29.38
6395;BME280;3230;42.588;23.358;2023-03-26T14:32:52;90441.16;;;15.00;28.01
6395;BME280;3230;42.588;23.358;2023-03-26T14:35:32;90434.69;;;14.71;29.10
6395;BME280;3230;42.588;23.358;2023-03-26T14:43:58;90429.84;;;14.65;29.76
6395;BME280;3230;42.588;23.358;2023-03-26T14:52:09;90435.28;;;14.68;30.11
6395;BME280;3230;42.588;23.358;2023-03-26T14:54:41;90430.16;;;14.37;30.18
6395;BME280;3230;42.588;23.358;2023-03-26T15:49:52;90435.47;;;13.44;35.23
6395;BME280;3230;42.588;23.358;2023-03-26T15:52:54;90436.94;;;13.27;35.55
6395;BME280;3230;42.588;23.358;2023-03-26T15:55:41;90442.03;;;13.24;35.67
6395;BME280;3230;42.588;23.358;2023-03-26T15:58:19;90439.06;;;13.17;36.08
6395;BME280;3230;42.588;23.358;2023-03-26T16:00:54;90439.81;;;13.08;36.56
6395;BME280;3230;42.588;23.358;2023-03-26T16:06:58;90438.22;;;12.99;37.14
6395;BME280;3230;42.588;23.358;2023-03-26T16:09:46;90439.66;;;12.82;37.83
6395;BME280;3230;42.588;23.358;2023-03-26T16:17:18;90443.69;;;12.57;38.84
6395;BME280;3230;42.588;23.358;2023-03-26T16:22:58;90449.44;;;12.36;39.86
6395;BME280;3230;42.588;23.358;2023-03-26T16:30:37;90446.63;;;11.96;40.48
6395;BME280;3230;42.588;23.358;2023-03-26T16:33:14;90454.91;;;11.61;42.01
6395;BME280;3230;42.588;23.358;2023-03-26T16:35:51;90454.03;;;11.66;41.62
6395;BME280;3230;42.588;23.358;2023-03-26T16:38:26;90454.63;;;11.63;41.63
6395;BME280;3230;42.588;23.358;2023-03-26T16:41:18;90454.56;;;11.40;42.59
6395;BME280;3230;42.588;23.358;2023-03-26T16:57:54;90459.69;;;10.56;45.83
6395;BME280;3230;42.588;23.358;2023-03-26T17:01:07;90461.59;;;10.51;45.82
6395;BME280;3230;42.588;23.358;2023-03-26T17:06:25;90467.41;;;10.29;46.94
6395;BME280;3230;42.588;23.358;2023-03-26T17:09:22;90458.06;;;10.22;47.12
6395;BME280;3230;42.588;23.358;2023-03-26T17:12:01;90463.75;;;10.11;47.61
6395;BME280;3230;42.588;23.358;2023-03-26T17:17:33;90465.28;;;10.12;47.24
6395;BME280;3230;42.588;23.358;2023-03-26T17:20:27;90472.47;;;10.06;47.90
6395;BME280;3230;42.588;23.358;2023-03-26T17:26:11;90468.75;;;10.07;48.04
6395;BME280;3230;42.588;23.358;2023-03-26T17:28:49;90477.41;;;10.07;47.56
6395;BME280;3230;42.588;23.358;2023-03-26T17:33:48;90478.47;;;10.06;46.77
6395;BME280;3230;42.588;23.358;2023-03-26T17:36:27;90480.25;;;10.11;47.23
6395;BME280;3230;42.588;23.358;2023-03-26T17:39:17;90476.50;;;10.17;46.25
6395;BME280;3230;42.588;23.358;2023-03-26T17:41:53;90474.63;;;10.18;46.52
6395;BME280;3230;42.588;23.358;2023-03-26T17:44:50;90466.56;;;10.14;46.91
6395;BME280;3230;42.588;23.358;2023-03-26T17:47:42;90469.91;;;10.20;46.45
6395;BME280;3230;42.588;23.358;2023-03-26T17:50:21;90460.91;;;10.07;46.25
6395;BME280;3230;42.588;23.358;2023-03-26T17:52:58;90459.38;;;10.06;45.93
6395;BME280;3230;42.588;23.358;2023-03-26T17:55:28;90454.69;;;10.03;44.82
6395;BME280;3230;42.588;23.358;2023-03-26T17:57:58;90458.88;;;10.04;43.26
6395;BME280;3230;42.588;23.358;2023-03-26T18:00:30;90456.75;;;10.06;42.68
6395;BME280;3230;42.588;23.358;2023-03-26T18:03:10;90441.81;;;9.87;42.18
6395;BME280;3230;42.588;23.358;2023-03-26T18:05:38;90453.50;;;9.95;41.69
6395;BME280;3230;42.588;23.358;2023-03-26T18:16:41;90446.84;;;9.21;47.36
6395;BME280;3230;42.588;23.358;2023-03-26T18:19:13;90454.16;;;9.19;46.48
6395;BME280;3230;42.588;23.358;2023-03-26T18:21:58;90455.56;;;9.11;46.51
6395;BME280;3230;42.588;23.358;2023-03-26T18:24:31;90448.63;;;9.26;46.06
6395;BME280;3230;42.588;23.358;2023-03-26T18:27:06;90455.50;;;9.17;45.16
6395;BME280;3230;42.588;23.358;2023-03-26T18:29:35;90445.13;;;9.11;44.66
6395;BME280;3230;42.588;23.358;2023-03-26T18:34:33;90450.25;;;8.98;45.24
6395;BME280;3230;42.588;23.358;2023-03-26T18:39:38;90440.66;;;8.88;46.73
6395;BME280;3230;42.588;23.358;2023-03-26T18:42:04;90436.03;;;8.79;46.50
6395;BME280;3230;42.588;23.358;2023-03-26T18:44:34;90437.84;;;8.84;44.33
6395;BME280;3230;42.588;23.358;2023-03-26T18:47:04;90432.25;;;8.91;45.33
6395;BME280;3230;42.588;23.358;2023-03-26T18:49:31;90427.81;;;8.91;43.74
6395;BME280;3230;42.588;23.358;2023-03-26T18:51:57;90423.59;;;8.95;43.96
6395;BME280;3230;42.588;23.358;2023-03-26T18:54:23;90422.41;;;9.07;42.19
6395;BME280;3230;42.588;23.358;2023-03-26T18:56:49;90416.28;;;8.98;41.87
6395;BME280;3230;42.588;23.358;2023-03-26T18:59:21;90414.06;;;9.05;41.50
6395;BME280;3230;42.588;23.358;2023-03-26T19:01:54;90411.47;;;9.05;42.27
6395;BME280;3230;42.588;23.358;2023-03-26T19:04:23;90403.63;;;9.05;41.52
6395;BME280;3230;42.588;23.358;2023-03-26T19:06:49;90399.47;;;9.04;41.41
6395;BME280;3230;42.588;23.358;2023-03-26T19:09:19;90403.44;;;9.01;41.21